createdAt,value
2022-12-03T00:04:26.927Z,3.00
2022-12-03T00:08:35.452Z,3.00
2022-12-03T00:17:01.156Z,3.10
2022-12-03T00:21:09.786Z,3.10
2022-12-03T00:25:18.855Z,3.10
2022-12-03T00:29:27.509Z,3.10
2022-12-03T00:33:36.063Z,3.10
2022-12-03T00:37:44.636Z,3.10
2022-12-03T00:41:54.922Z,3.20
2022-12-03T00:46:03.540Z,3.20
2022-12-03T00:50:24.259Z,3.20
2022-12-03T00:54:32.970Z,3.20
2022-12-03T00:58:41.573Z,3.20
2022-12-03T01:02:50.204Z,3.10
2022-12-03T01:06:58.831Z,3.20
2022-12-03T01:11:09.098Z,3.10
2022-12-03T01:15:17.601Z,3.10
2022-12-03T01:19:26.158Z,3.10
2022-12-03T01:23:34.779Z,3.10
2022-12-03T01:27:43.817Z,3.10
2022-12-03T01:36:24.119Z,3.20
2022-12-03T01:40:32.745Z,3.10
2022-12-03T01:44:41.815Z,3.20
2022-12-03T01:48:53.331Z,3.20
2022-12-03T01:53:04.518Z,3.20
2022-12-03T01:57:42.385Z,3.20
2022-12-03T02:02:18.103Z,3.20
2022-12-03T02:06:46.334Z,3.10
2022-12-03T02:10:55.373Z,3.10
2022-12-03T02:15:05.073Z,3.10
2022-12-03T02:19:19.657Z,3.20
2022-12-03T02:23:37.272Z,3.10
2022-12-03T02:27:47.086Z,3.10
2022-12-03T02:31:55.740Z,3.10
2022-12-03T02:36:24.111Z,3.10
2022-12-03T02:40:34.244Z,3.10
2022-12-03T02:44:42.904Z,3.10
2022-12-03T02:48:51.634Z,3.20
2022-12-03T02:53:03.091Z,3.20
2022-12-03T02:57:12.068Z,3.10
2022-12-03T03:01:20.749Z,3.10
2022-12-03T03:05:29.886Z,3.10
2022-12-03T03:09:38.671Z,3.00
2022-12-03T03:13:47.671Z,3.00
2022-12-03T03:17:56.776Z,3.10
2022-12-03T03:22:05.687Z,3.10
2022-12-03T03:26:16.514Z,3.10
2022-12-03T03:30:25.199Z,3.10
2022-12-03T03:34:53.714Z,3.10
2022-12-03T03:39:02.601Z,3.10
2022-12-03T03:43:11.663Z,3.10
2022-12-03T03:47:20.739Z,3.10
2022-12-03T03:51:29.534Z,3.10
2022-12-03T03:55:38.674Z,3.10
2022-12-03T03:59:47.919Z,3.10
2022-12-03T04:03:57.417Z,3.20
2022-12-03T04:08:06.175Z,3.20
2022-12-03T04:12:32.739Z,3.20
2022-12-03T04:16:41.415Z,3.10
2022-12-03T04:20:50.003Z,3.10
2022-12-03T04:25:35.906Z,3.00
2022-12-03T04:29:44.535Z,3.10
2022-12-03T04:34:11.293Z,3.10
2022-12-03T04:38:19.840Z,3.10
2022-12-03T04:42:28.443Z,3.10
2022-12-03T04:46:37.071Z,3.10
2022-12-03T04:50:45.599Z,3.10
2022-12-03T04:54:54.498Z,3.00
2022-12-03T04:59:03.265Z,3.00
2022-12-03T05:03:11.897Z,3.10
2022-12-03T05:07:20.528Z,3.20
2022-12-03T05:11:29.065Z,3.10
2022-12-03T05:15:57.032Z,3.10
2022-12-03T05:20:46.971Z,3.00
2022-12-03T05:24:53.494Z,3.00
2022-12-03T05:29:02.322Z,3.00
2022-12-03T05:33:10.969Z,3.10
2022-12-03T05:37:19.598Z,3.00
2022-12-03T05:41:46.046Z,3.00
2022-12-03T05:45:54.753Z,3.00
2022-12-03T05:50:03.404Z,3.00
2022-12-03T05:54:11.967Z,3.00
2022-12-03T05:58:20.662Z,3.00
2022-12-03T06:02:29.554Z,2.90
2022-12-03T06:06:38.226Z,2.90
2022-12-03T06:11:06.312Z,2.90
2022-12-03T06:15:38.799Z,2.90
2022-12-03T06:19:44.663Z,2.90
2022-12-03T06:23:53.189Z,2.90
2022-12-03T06:28:01.819Z,2.90
2022-12-03T06:32:10.652Z,2.90
2022-12-03T06:36:23.012Z,2.90
2022-12-03T06:40:29.547Z,2.80
2022-12-03T06:44:57.536Z,2.80
2022-12-03T06:49:06.362Z,2.80
2022-12-03T06:53:15.094Z,2.80
2022-12-03T06:57:23.690Z,2.80
2022-12-03T07:01:32.352Z,2.90
2022-12-03T07:06:00.293Z,2.90
2022-12-03T07:10:09.805Z,2.90
2022-12-03T07:14:18.411Z,2.90
2022-12-03T07:18:27.046Z,2.90
2022-12-03T07:22:55.024Z,2.90
2022-12-03T07:27:03.550Z,2.80
2022-12-03T07:31:12.256Z,2.80
2022-12-03T07:35:21.725Z,2.80
2022-12-03T07:39:49.709Z,2.80
2022-12-03T07:43:58.271Z,2.90
2022-12-03T07:48:07.137Z,2.90
2022-12-03T07:52:15.776Z,2.80
2022-12-03T07:56:24.359Z,2.80
2022-12-03T08:00:33.072Z,2.80
2022-12-03T08:04:41.686Z,2.80
2022-12-03T08:08:50.418Z,2.80
2022-12-03T08:13:00.788Z,2.70
2022-12-03T08:17:17.930Z,2.70
2022-12-03T08:21:29.513Z,2.80
2022-12-03T08:25:38.860Z,2.90
2022-12-03T08:29:47.828Z,2.90
2022-12-03T08:34:19.975Z,2.80
2022-12-03T08:38:40.544Z,2.90
2022-12-03T08:42:49.520Z,2.70
2022-12-03T08:47:13.115Z,2.70
2022-12-03T08:51:26.229Z,2.70
2022-12-03T08:55:37.280Z,2.70
2022-12-03T08:59:46.021Z,2.80
2022-12-03T09:03:55.965Z,2.90
2022-12-03T09:08:05.203Z,2.90
2022-12-03T09:12:13.892Z,2.90
2022-12-03T09:16:22.390Z,2.90
2022-12-03T09:20:31.140Z,2.90
2022-12-03T09:24:39.630Z,2.80
2022-12-03T09:28:48.297Z,2.90
2022-12-03T09:32:56.875Z,2.90
2022-12-03T09:37:05.420Z,2.90
2022-12-03T09:41:14.182Z,2.90
2022-12-03T09:45:23.557Z,2.80
2022-12-03T09:49:33.370Z,2.80
2022-12-03T09:53:42.265Z,2.80
2022-12-03T09:57:52.511Z,2.90
2022-12-03T10:02:02.088Z,3.00
2022-12-03T10:06:13.722Z,3.00
2022-12-03T10:10:25.334Z,3.00
2022-12-03T10:14:33.860Z,3.10
2022-12-03T10:18:45.562Z,3.00
2022-12-03T10:22:54.189Z,3.00
2022-12-03T10:27:05.788Z,3.00
2022-12-03T10:31:15.519Z,2.90
2022-12-03T10:35:27.094Z,3.00
2022-12-03T10:39:56.756Z,2.90
2022-12-03T10:44:14.299Z,3.00
2022-12-03T10:48:30.963Z,3.00
2022-12-03T10:52:39.966Z,3.00
2022-12-03T10:56:50.426Z,3.00
2022-12-03T11:01:01.492Z,3.10
2022-12-03T11:05:16.903Z,3.10
2022-12-03T11:09:28.565Z,3.10
2022-12-03T11:13:40.197Z,3.20
2022-12-03T11:17:56.198Z,3.20
2022-12-03T11:22:10.973Z,3.10
2022-12-03T11:26:31.682Z,3.10
2022-12-03T11:30:56.705Z,3.00
2022-12-03T11:35:13.978Z,3.10
2022-12-03T11:39:25.610Z,3.10
2022-12-03T11:43:56.724Z,3.10
2022-12-03T11:48:14.528Z,3.10
2022-12-03T11:52:29.203Z,3.10
2022-12-03T11:56:57.282Z,3.20
2022-12-03T12:01:07.910Z,3.20
2022-12-03T12:05:19.147Z,3.10
2022-12-03T12:09:47.683Z,3.20
2022-12-03T12:18:39.026Z,3.20
2022-12-03T12:22:47.712Z,3.20
2022-12-03T12:26:57.842Z,3.20
2022-12-03T12:31:12.188Z,3.20
2022-12-03T12:35:28.907Z,3.30
2022-12-03T12:39:38.816Z,3.20
2022-12-03T12:43:47.545Z,3.20
2022-12-03T12:48:17.375Z,3.20
2022-12-03T12:52:26.100Z,3.30
2022-12-03T12:56:34.738Z,3.30
2022-12-03T13:00:43.504Z,3.30
2022-12-03T13:05:12.881Z,3.40
2022-12-03T13:09:24.481Z,3.40
2022-12-03T13:13:52.614Z,3.20
2022-12-03T13:18:27.828Z,3.20
2022-12-03T13:22:36.654Z,3.20
2022-12-03T13:26:45.317Z,3.20
2022-12-03T13:30:53.966Z,3.10
2022-12-03T13:35:16.328Z,3.20
2022-12-03T13:39:36.867Z,3.20
2022-12-03T13:43:45.500Z,3.10
2022-12-03T13:48:00.435Z,3.00
2022-12-03T13:52:29.991Z,3.00
2022-12-03T13:56:38.618Z,3.00
2022-12-03T14:01:06.587Z,3.00
2022-12-03T14:05:15.640Z,3.00
2022-12-03T14:09:24.173Z,3.10
2022-12-03T14:13:32.797Z,3.10
2022-12-03T14:17:41.425Z,3.00
2022-12-03T14:21:49.992Z,3.10
2022-12-03T14:25:58.544Z,3.10
2022-12-03T14:30:08.578Z,3.10
2022-12-03T14:34:25.565Z,3.10
2022-12-03T14:38:34.192Z,3.00
2022-12-03T14:42:42.821Z,3.00
2022-12-03T14:46:56.764Z,3.10
2022-12-03T14:51:02.434Z,3.10
2022-12-03T14:55:11.261Z,3.00
2022-12-03T14:59:23.138Z,3.00
2022-12-03T15:03:30.062Z,3.00
2022-12-03T15:07:39.467Z,3.00
2022-12-03T15:12:08.607Z,3.00
2022-12-03T15:16:17.312Z,3.00
2022-12-03T15:20:25.929Z,3.00
2022-12-03T15:24:34.607Z,2.90
2022-12-03T15:28:48.029Z,2.90
2022-12-03T15:32:53.706Z,2.80
2022-12-03T15:37:02.455Z,2.90
2022-12-03T15:41:30.627Z,2.90
2022-12-03T15:45:39.136Z,2.90
2022-12-03T15:49:48.803Z,2.90
2022-12-03T15:53:57.433Z,2.80
2022-12-03T15:58:25.317Z,2.80
2022-12-03T16:02:35.493Z,2.80
2022-12-03T16:06:44.420Z,2.80
2022-12-03T16:10:53.108Z,2.80
2022-12-03T16:15:01.671Z,2.70
2022-12-03T16:19:10.382Z,2.80
2022-12-03T16:23:19.179Z,2.70
2022-12-03T16:27:27.722Z,2.70
2022-12-03T16:31:36.362Z,2.70
2022-12-03T16:35:44.929Z,2.70
2022-12-03T16:39:53.796Z,2.70
2022-12-03T16:44:04.368Z,2.70
2022-12-03T16:48:14.412Z,2.70
2022-12-03T16:52:23.371Z,2.80
2022-12-03T16:56:31.921Z,2.80
2022-12-03T17:00:40.523Z,2.70
2022-12-03T17:04:49.103Z,2.80
2022-12-03T17:08:57.666Z,2.80
2022-12-03T17:13:09.819Z,2.80
2022-12-03T17:17:17.353Z,2.80
2022-12-03T17:21:26.703Z,2.70
2022-12-03T17:25:36.288Z,2.70
2022-12-03T17:29:44.850Z,2.70
2022-12-03T17:33:55.052Z,2.70
2022-12-03T17:38:03.702Z,2.70
2022-12-03T17:42:12.342Z,2.80
2022-12-03T17:46:21.307Z,2.70
2022-12-03T17:50:30.065Z,2.70
2022-12-03T17:55:08.370Z,2.60
2022-12-03T17:58:48.959Z,2.70
2022-12-03T18:02:57.691Z,2.60
2022-12-03T18:07:06.318Z,2.60
2022-12-03T18:11:14.947Z,2.60
2022-12-03T18:15:23.691Z,2.60
2022-12-03T18:19:32.306Z,2.60
2022-12-03T18:23:41.131Z,2.60
2022-12-03T18:27:49.769Z,2.60
2022-12-03T18:31:59.376Z,2.60
2022-12-03T18:36:14.893Z,2.60
2022-12-03T18:40:23.856Z,2.60
2022-12-03T18:44:32.425Z,2.60
2022-12-03T18:48:42.231Z,2.50
2022-12-03T18:52:50.864Z,2.50
2022-12-03T18:56:59.589Z,2.60
2022-12-03T19:01:10.221Z,2.60
2022-12-03T19:05:18.997Z,2.60
2022-12-03T19:09:27.728Z,2.60
2022-12-03T19:13:36.458Z,2.60
2022-12-03T19:17:50.352Z,2.60
2022-12-03T19:21:58.908Z,2.60
2022-12-03T19:26:09.426Z,2.60
2022-12-03T19:30:18.332Z,2.60
2022-12-03T19:34:27.386Z,2.60
2022-12-03T19:38:36.526Z,2.60
2022-12-03T19:42:45.362Z,2.70
2022-12-03T19:46:54.192Z,2.60
2022-12-03T19:51:26.568Z,2.50
2022-12-03T19:55:13.907Z,2.60
2022-12-03T19:59:22.537Z,2.50
2022-12-03T20:03:31.267Z,2.50
2022-12-03T20:07:39.826Z,2.60
2022-12-03T20:11:51.290Z,2.50
2022-12-03T20:16:04.974Z,2.50
2022-12-03T20:20:13.706Z,2.50
2022-12-03T20:24:22.367Z,2.40
2022-12-03T20:28:30.959Z,2.40
2022-12-03T20:32:45.123Z,2.40
2022-12-03T20:36:49.819Z,2.40
2022-12-03T20:41:02.889Z,2.40
2022-12-03T20:45:12.250Z,2.40
2022-12-03T20:49:40.486Z,2.40
2022-12-03T20:53:49.422Z,2.40
2022-12-03T20:57:58.051Z,2.40
2022-12-03T21:02:06.804Z,2.40
2022-12-03T21:06:16.209Z,2.40
2022-12-03T21:10:35.306Z,2.40
2022-12-03T21:14:43.885Z,2.40
2022-12-03T21:18:52.664Z,2.40
2022-12-03T21:23:01.191Z,2.30
2022-12-03T21:27:09.800Z,2.30
2022-12-03T21:31:21.244Z,2.30
2022-12-03T21:35:30.251Z,2.40
2022-12-03T21:39:58.134Z,2.30
2022-12-03T21:44:07.001Z,2.30
2022-12-03T21:48:16.763Z,2.40
2022-12-03T21:52:25.348Z,2.40
2022-12-03T21:56:33.978Z,2.50
2022-12-03T22:01:02.108Z,2.30
2022-12-03T22:05:12.161Z,2.30
2022-12-03T22:09:26.277Z,2.20
2022-12-03T22:13:31.020Z,2.20
2022-12-03T22:17:39.515Z,2.30
2022-12-03T22:21:48.277Z,2.30
2022-12-03T22:26:05.694Z,2.40
2022-12-03T22:30:14.588Z,2.30
2022-12-03T22:34:23.319Z,2.40
2022-12-03T22:38:32.624Z,2.40
2022-12-03T22:42:43.973Z,2.40
2022-12-03T22:46:51.521Z,2.40
2022-12-03T22:51:00.269Z,2.30
2022-12-03T22:55:28.749Z,2.40
2022-12-03T22:59:37.284Z,2.40
2022-12-03T23:03:47.864Z,2.40
2022-12-03T23:07:56.200Z,2.40
2022-12-03T23:12:24.252Z,2.30
2022-12-03T23:16:34.530Z,2.40
2022-12-03T23:20:46.015Z,2.40
2022-12-03T23:24:54.585Z,2.40
2022-12-03T23:29:03.132Z,2.40
2022-12-03T23:33:11.797Z,2.40
2022-12-03T23:37:20.426Z,2.40
2022-12-03T23:41:28.953Z,2.30
2022-12-03T23:45:37.545Z,2.30
2022-12-03T23:49:46.209Z,2.40
2022-12-03T23:53:56.453Z,2.40
2022-12-03T23:58:05.103Z,2.40
